createdAt,value
2018-04-06T00:00:11.169Z,7.23
2018-04-06T00:04:44.377Z,7.10
2018-04-06T00:09:17.545Z,8.37
2018-04-06T00:13:51.507Z,7.87
2018-04-06T00:18:24.700Z,7.27
2018-04-06T00:22:57.918Z,8.37
2018-04-06T00:27:31.082Z,8.70
2018-04-06T00:32:04.270Z,8.93
2018-04-06T00:36:37.464Z,8.53
2018-04-06T00:41:10.660Z,8.47
2018-04-06T00:45:43.880Z,11.53
2018-04-06T00:50:17.059Z,11.53
2018-04-06T00:54:50.249Z,12.10
2018-04-06T00:59:23.524Z,12.67
2018-04-06T01:03:57.480Z,13.13
2018-04-06T01:08:31.034Z,11.30
2018-04-06T01:13:04.301Z,12.70
2018-04-06T01:17:37.497Z,15.03
2018-04-06T01:22:11.620Z,12.13
2018-04-06T01:26:45.640Z,17.53
2018-04-06T01:31:18.861Z,14.90
2018-04-06T01:35:53.625Z,14.60
2018-04-06T01:40:26.820Z,19.13
2018-04-06T01:45:00.032Z,23.87
2018-04-06T01:49:33.797Z,19.27
2018-04-06T01:54:07.004Z,13.20
2018-04-06T01:58:40.200Z,15.30
2018-04-06T02:03:13.393Z,18.67
2018-04-06T02:07:46.961Z,24.33
2018-04-06T02:12:20.167Z,20.47
2018-04-06T02:16:54.127Z,16.40
2018-04-06T02:21:27.321Z,24.67
2018-04-06T02:26:00.511Z,17.97
2018-04-06T02:30:34.478Z,25.13
2018-04-06T02:35:07.707Z,21.40
2018-04-06T02:39:40.873Z,19.13
2018-04-06T02:44:14.077Z,21.30
2018-04-06T02:48:47.252Z,14.30
2018-04-06T02:53:21.239Z,17.33
2018-04-06T02:57:54.482Z,16.63
2018-04-06T03:02:27.671Z,23.43
2018-04-06T03:07:00.901Z,24.47
2018-04-06T03:11:34.843Z,24.20
2018-04-06T03:16:08.045Z,31.77
2018-04-06T03:20:41.999Z,36.27
2018-04-06T03:25:15.204Z,33.40
2018-04-06T03:29:48.380Z,17.00
2018-04-06T03:34:21.600Z,23.13
2018-04-06T03:38:54.804Z,24.10
2018-04-06T03:43:27.967Z,31.70
2018-04-06T03:48:01.208Z,35.00
2018-04-06T03:52:35.140Z,23.17
2018-04-06T03:57:08.328Z,20.87
2018-04-06T04:01:42.264Z,21.43
2018-04-06T04:06:16.221Z,25.80
2018-04-06T04:10:49.417Z,30.33
2018-04-06T04:15:22.620Z,23.13
2018-04-06T04:19:55.815Z,39.90
2018-04-06T04:24:29.007Z,25.73
2018-04-06T04:29:02.943Z,50.40
2018-04-06T04:33:36.167Z,30.63
2018-04-06T04:38:09.331Z,31.90
2018-04-06T04:42:42.569Z,23.57
2018-04-06T04:47:15.773Z,29.63
2018-04-06T04:51:49.003Z,17.93
2018-04-06T04:56:22.214Z,20.07
2018-04-06T05:00:56.621Z,34.10
2018-04-06T05:05:34.777Z,31.90
2018-04-06T05:10:08.369Z,35.77
2018-04-06T05:14:41.664Z,26.83
2018-04-06T05:19:14.872Z,26.63
2018-04-06T05:23:48.070Z,32.40
2018-04-06T05:28:21.284Z,15.23
2018-04-06T05:32:54.532Z,42.57
2018-04-06T05:37:27.856Z,46.67
2018-04-06T05:42:01.040Z,37.20
2018-04-06T05:46:34.519Z,17.93
2018-04-06T05:51:07.864Z,17.27
2018-04-06T05:55:41.142Z,12.93
2018-04-06T06:00:14.399Z,16.13
2018-04-06T06:04:47.635Z,12.40
2018-04-06T06:09:21.644Z,12.23
2018-04-06T06:13:54.888Z,7.93
2018-04-06T06:18:28.117Z,7.20
2018-04-06T06:23:01.368Z,11.90
2018-04-06T06:27:34.604Z,7.93
2018-04-06T06:32:08.565Z,8.93
2018-04-06T06:36:41.756Z,7.20
2018-04-06T06:41:15.023Z,6.60
2018-04-06T06:45:48.971Z,6.83
2018-04-06T06:50:22.921Z,8.33
2018-04-06T06:54:56.311Z,8.80
2018-04-06T06:59:29.713Z,8.77
2018-04-06T07:04:03.536Z,7.90
2018-04-06T07:08:36.827Z,8.40
2018-04-06T07:13:10.797Z,7.57
2018-04-06T07:17:44.036Z,7.20
2018-04-06T07:22:17.235Z,6.43
2018-04-06T07:26:50.936Z,7.30
2018-04-06T07:31:24.396Z,7.90
2018-04-06T07:35:57.708Z,7.57
2018-04-06T07:40:30.900Z,6.40
2018-04-06T07:45:04.228Z,8.30
2018-04-06T07:49:38.237Z,4.80
2018-04-06T07:54:11.437Z,6.00
2018-04-06T07:58:44.691Z,7.40
2018-04-06T08:03:17.979Z,7.33
2018-04-06T08:07:52.020Z,8.40
2018-04-06T08:12:25.279Z,7.00
2018-04-06T08:16:58.540Z,6.83
2018-04-06T08:21:31.769Z,5.67
2018-04-06T08:26:05.193Z,6.60
2018-04-06T08:30:38.446Z,5.93
2018-04-06T08:35:13.396Z,5.20
2018-04-06T08:39:47.387Z,5.77
2018-04-06T08:44:20.606Z,6.27
2018-04-06T08:48:53.934Z,6.20
2018-04-06T08:53:27.981Z,7.65
2018-04-06T08:58:01.197Z,6.05
2018-04-06T09:02:34.645Z,5.37
2018-04-06T09:07:07.881Z,5.03
2018-04-06T09:11:43.337Z,5.80
2018-04-06T09:16:16.667Z,5.07
2018-04-06T09:20:50.965Z,5.25
2018-04-06T09:25:24.960Z,5.40
2018-04-06T09:29:58.476Z,5.45
2018-04-06T09:34:31.716Z,4.60
2018-04-06T09:39:06.612Z,4.50
2018-04-06T09:43:39.833Z,4.35
2018-04-06T09:48:13.857Z,5.00
2018-04-06T09:52:47.117Z,4.68
2018-04-06T09:57:21.424Z,4.50
2018-04-06T10:01:55.771Z,5.05
2018-04-06T10:06:29.917Z,4.62
2018-04-06T10:11:03.871Z,3.70
2018-04-06T10:15:37.158Z,4.37
2018-04-06T10:20:10.398Z,4.20
2018-04-06T10:24:43.665Z,4.50
2018-04-06T10:29:17.657Z,4.10
2018-04-06T10:33:50.880Z,3.87
2018-04-06T10:38:24.114Z,4.25
2018-04-06T10:42:57.429Z,3.83
2018-04-06T10:47:30.681Z,3.67
2018-04-06T10:52:03.949Z,3.78
2018-04-06T10:56:38.623Z,3.00
2018-04-06T11:01:11.869Z,3.47
2018-04-06T11:05:45.889Z,3.65
2018-04-06T11:10:19.885Z,3.00
2018-04-06T11:14:53.164Z,3.33
2018-04-06T11:19:26.407Z,3.53
2018-04-06T11:23:59.599Z,3.10
2018-04-06T11:28:32.849Z,3.25
2018-04-06T11:33:06.837Z,3.12
2018-04-06T11:37:40.091Z,2.87
2018-04-06T11:42:14.170Z,2.80
2018-04-06T11:46:47.402Z,2.40
2018-04-06T11:51:20.770Z,2.33
2018-04-06T11:55:54.123Z,2.53
2018-04-06T12:00:27.798Z,2.58
2018-04-06T12:05:02.069Z,2.58
2018-04-06T12:09:36.036Z,2.60
2018-04-06T12:14:10.141Z,2.40
2018-04-06T12:18:44.078Z,2.40
2018-04-06T12:23:31.139Z,2.12
2018-04-06T12:28:06.981Z,2.40
2018-04-06T12:32:40.306Z,2.05
2018-04-06T12:37:13.714Z,2.12
2018-04-06T12:41:46.927Z,2.00
2018-04-06T12:46:26.337Z,1.95
2018-04-06T12:51:02.156Z,2.00
2018-04-06T12:55:35.466Z,2.33
2018-04-06T13:00:08.673Z,2.17
2018-04-06T13:04:41.895Z,2.30
2018-04-06T13:09:15.056Z,2.20
2018-04-06T13:13:49.041Z,2.78
2018-04-06T13:18:22.282Z,2.47
2018-04-06T13:22:56.258Z,1.90
2018-04-06T13:27:29.534Z,2.00
2018-04-06T13:32:02.755Z,2.85
2018-04-06T13:36:35.956Z,2.70
2018-04-06T13:41:09.231Z,3.12
2018-04-06T13:45:43.242Z,3.10
2018-04-06T13:50:17.232Z,3.10
2018-04-06T13:54:50.491Z,3.35
2018-04-06T13:59:24.573Z,2.80
2018-04-06T14:03:57.757Z,3.22
2018-04-06T14:08:30.977Z,2.78
2018-04-06T14:13:04.173Z,2.80
2018-04-06T14:17:37.355Z,2.65
2018-04-06T14:22:11.356Z,2.75
2018-04-06T14:26:44.921Z,2.92
2018-04-06T14:31:18.199Z,2.62
2018-04-06T14:35:52.284Z,3.20
2018-04-06T14:40:25.511Z,2.65
2018-04-06T14:44:59.524Z,3.20
2018-04-06T14:49:32.740Z,2.95
2018-04-06T14:54:06.025Z,2.95
2018-04-06T14:58:39.206Z,3.00
2018-04-06T15:03:12.452Z,3.20
2018-04-06T15:07:45.720Z,2.60
2018-04-06T15:12:18.921Z,3.10
2018-04-06T15:16:52.145Z,2.70
2018-04-06T15:21:25.369Z,2.75
2018-04-06T15:25:59.528Z,2.80
2018-04-06T15:30:32.702Z,3.00
2018-04-06T15:35:05.892Z,2.65
2018-04-06T15:39:39.103Z,3.08
2018-04-06T15:44:12.792Z,3.45
2018-04-06T15:48:46.004Z,2.65
2018-04-06T15:53:19.194Z,3.40
2018-04-06T15:57:53.315Z,3.40
2018-04-06T16:02:27.292Z,3.55
2018-04-06T16:07:00.728Z,3.47
2018-04-06T16:11:34.741Z,3.50
2018-04-06T16:16:08.295Z,3.78
2018-04-06T16:20:42.292Z,4.15
2018-04-06T16:25:15.524Z,3.00
2018-04-06T16:29:49.533Z,4.20
2018-04-06T16:34:22.741Z,3.42
2018-04-06T16:38:55.969Z,3.25
2018-04-06T16:43:29.935Z,3.67
2018-04-06T16:48:03.178Z,3.75
2018-04-06T16:52:36.428Z,3.83
2018-04-06T16:57:09.629Z,4.45
2018-04-06T17:01:42.800Z,4.40
2018-04-06T17:06:16.018Z,4.32
2018-04-06T17:10:50.052Z,4.28
2018-04-06T17:15:24.016Z,4.35
2018-04-06T17:19:57.294Z,3.60
2018-04-06T17:24:30.512Z,7.40
2018-04-06T17:29:03.700Z,4.90
2018-04-06T17:33:37.671Z,5.65
2018-04-06T17:38:10.904Z,5.65
2018-04-06T17:42:44.239Z,6.00
2018-04-06T17:47:18.257Z,4.60
2018-04-06T17:51:51.629Z,5.87
2018-04-06T17:56:24.832Z,4.37
2018-04-06T18:00:59.187Z,4.18
2018-04-06T18:05:32.427Z,4.27
2018-04-06T18:10:06.428Z,5.23
2018-04-06T18:14:39.604Z,5.40
2018-04-06T18:19:12.833Z,5.40
2018-04-06T18:23:46.028Z,6.20
2018-04-06T18:28:19.260Z,4.83
2018-04-06T18:32:53.251Z,8.03
2018-04-06T18:37:26.509Z,7.40
2018-04-06T18:42:00.592Z,8.77
2018-04-06T18:46:33.784Z,8.37
2018-04-06T18:51:07.013Z,7.00
2018-04-06T18:55:41.929Z,6.07
2018-04-06T19:00:15.133Z,6.87
2018-04-06T19:04:48.410Z,6.87
2018-04-06T19:09:22.395Z,9.90
2018-04-06T19:13:55.741Z,10.83
2018-04-06T19:18:29.702Z,7.47
2018-04-06T19:23:02.927Z,9.27
2018-04-06T19:27:36.151Z,11.97
2018-04-06T19:32:09.359Z,8.20
2018-04-06T19:36:42.583Z,9.40
2018-04-06T19:41:15.823Z,15.57
2018-04-06T19:45:49.338Z,9.30
2018-04-06T19:50:22.590Z,8.27
2018-04-06T19:54:55.796Z,7.73
2018-04-06T19:59:28.991Z,8.03
2018-04-06T20:04:02.228Z,10.50
2018-04-06T20:08:35.452Z,8.47
2018-04-06T20:13:09.439Z,7.60
2018-04-06T20:17:42.632Z,9.13
2018-04-06T20:22:16.639Z,44.97
2018-04-06T20:26:50.496Z,22.20
2018-04-06T20:31:23.761Z,37.33
2018-04-06T20:35:56.947Z,34.13
2018-04-06T20:40:30.920Z,28.67
2018-04-06T20:45:04.140Z,23.20
2018-04-06T20:49:38.105Z,16.73
2018-04-06T20:54:11.378Z,22.60
2018-04-06T20:58:44.548Z,10.73
2018-04-06T21:03:17.793Z,11.50
2018-04-06T21:07:51.016Z,7.50
2018-04-06T21:12:24.963Z,8.17
2018-04-06T21:16:58.925Z,11.10
2018-04-06T21:21:32.194Z,16.87
2018-04-06T21:26:06.160Z,12.03
2018-04-06T21:30:39.415Z,13.57
2018-04-06T21:35:13.396Z,14.73
2018-04-06T21:39:46.629Z,10.30
2018-04-06T21:44:20.609Z,9.67
2018-04-06T21:48:53.848Z,16.23
2018-04-06T21:53:27.195Z,10.53
2018-04-06T21:58:01.165Z,16.73
2018-04-06T22:02:34.397Z,12.57
2018-04-06T22:07:07.653Z,19.53
2018-04-06T22:11:40.880Z,15.43
2018-04-06T22:16:14.113Z,12.73
2018-04-06T22:20:47.312Z,16.90
2018-04-06T22:25:20.529Z,42.27
2018-04-06T22:29:53.752Z,59.03
2018-04-06T22:34:27.732Z,25.33
2018-04-06T22:39:00.985Z,11.20
2018-04-06T22:43:34.178Z,13.50
2018-04-06T22:48:07.429Z,8.80
2018-04-06T22:52:41.402Z,8.13
2018-04-06T22:57:14.613Z,8.10
2018-04-06T23:01:47.848Z,10.33
2018-04-06T23:06:21.852Z,9.47
2018-04-06T23:10:55.097Z,14.13
2018-04-06T23:15:29.085Z,10.67
2018-04-06T23:20:02.289Z,8.97
2018-04-06T23:24:35.529Z,17.30
2018-04-06T23:29:09.483Z,9.67
2018-04-06T23:33:42.729Z,11.87
2018-04-06T23:38:15.939Z,16.10
2018-04-06T23:42:49.131Z,10.13
2018-04-06T23:47:22.362Z,16.57
2018-04-06T23:51:55.580Z,11.47
2018-04-06T23:56:28.759Z,12.63
